Time;durP1;ratioP1;P1;durP2;ratioP2;P2;SDS_P1;SDS_P2;PMS_P1;PMS_P2;Temp;Humidity;BMP_temperature;BMP_pressure;BME280_temperature;BME280_humidity;BME280_pressure;Samples;Min_cycle;Max_cycle;Signal;HPM_P1;HPM_P2
2021/09/26 00:01:44;;;;;;;10.75;5.63;;;17.90;99.90;;;;;;5015182;28;20397;-85
2021/09/26 00:04:10;;;;;;;9.30;5.30;;;17.70;99.90;;;;;;5015190;28;20061;-86
2021/09/26 00:06:35;;;;;;;9.75;4.97;;;17.50;99.90;;;;;;5016417;28;20037;-85
2021/09/26 00:09:03;;;;;;;9.57;5.15;;;17.60;99.90;;;;;;5014972;28;20492;-85
2021/09/26 00:11:29;;;;;;;7.05;5.30;;;17.60;99.90;;;;;;5015066;28;20025;-86
2021/09/26 00:13:55;;;;;;;9.52;4.90;;;17.60;99.90;;;;;;5015009;28;20026;-86
2021/09/26 00:16:21;;;;;;;7.43;4.97;;;17.70;99.90;;;;;;5014959;28;20053;-85
2021/09/26 00:18:47;;;;;;;6.78;4.78;;;17.80;99.90;;;;;;5014898;28;20022;-86
2021/09/26 00:21:13;;;;;;;7.38;5.22;;;17.60;99.90;;;;;;5014872;28;20029;-86
2021/09/26 00:23:39;;;;;;;6.53;4.63;;;17.70;99.90;;;;;;5014794;28;20072;-85
2021/09/26 00:26:05;;;;;;;8.05;5.05;;;17.70;99.90;;;;;;5014729;28;20029;-85
2021/09/26 00:28:31;;;;;;;9.07;5.22;;;17.70;99.90;;;;;;5014731;28;20489;-85
2021/09/26 00:30:57;;;;;;;7.45;5.30;;;17.70;99.90;;;;;;5014894;28;20045;-85
2021/09/26 00:33:24;;;;;;;7.07;5.05;;;17.80;99.90;;;;;;5014602;28;20025;-86
2021/09/26 00:35:50;;;;;;;7.80;5.78;;;17.70;99.90;;;;;;5014642;28;20026;-85
2021/09/26 00:38:18;;;;;;;7.35;5.05;;;17.60;99.90;;;;;;5014558;28;20022;-85
2021/09/26 00:40:46;;;;;;;8.38;5.00;;;17.80;99.90;;;;;;5014082;28;20459;-86
2021/09/26 00:43:12;;;;;;;8.60;5.10;;;17.60;99.90;;;;;;5014473;28;20477;-85
2021/09/26 00:45:37;;;;;;;7.55;5.70;;;17.60;99.90;;;;;;5015635;28;20025;-85
2021/09/26 00:48:04;;;;;;;8.95;5.70;;;17.40;99.90;;;;;;5014357;28;20037;-85
2021/09/26 00:50:31;;;;;;;7.32;5.05;;;17.30;99.90;;;;;;5014502;28;20025;-85
2021/09/26 00:52:57;;;;;;;6.15;5.05;;;17.20;99.90;;;;;;5014628;28;20030;-85
2021/09/26 00:55:23;;;;;;;6.65;4.47;;;17.30;99.90;;;;;;5014191;28;20389;-86
2021/09/26 00:57:49;;;;;;;8.88;5.78;;;17.20;99.90;;;;;;5015436;28;20022;-85
2021/09/26 01:00:18;;;;;;;7.28;5.72;;;17.30;99.90;;;;;;5014115;28;20434;-85
2021/09/26 01:02:44;;;;;;;7.85;5.60;;;17.30;99.90;;;;;;5014045;28;20037;-85
2021/09/26 01:05:12;;;;;;;7.07;5.60;;;17.10;99.90;;;;;;5013999;28;20124;-85
2021/09/26 01:08:05;;;;;;;7.45;4.95;;;17.10;99.90;;;;;;5013913;28;20026;-85
2021/09/26 01:10:30;;;;;;;9.15;5.32;;;17.40;99.90;;;;;;5013996;28;20026;-85
2021/09/26 01:13:04;;;;;;;8.40;5.40;;;17.50;99.90;;;;;;5013917;28;20076;-85
2021/09/26 01:15:48;;;;;;;12.05;5.45;;;17.60;99.90;;;;;;5014516;28;20030;-85
2021/09/26 01:18:36;;;;;;;7.60;4.93;;;17.40;99.90;;;;;;5014538;28;20536;-85
2021/09/26 01:21:29;;;;;;;9.05;5.50;;;17.40;99.90;;;;;;5015027;28;20528;-86
2021/09/26 01:24:33;;;;;;;9.32;5.22;;;17.20;99.90;;;;;;5014043;28;20022;-86
2021/09/26 01:27:17;;;;;;;9.02;4.78;;;;;;;;;;5014836;28;20026;-86
2021/09/26 01:29:53;;;;;;;9.77;5.00;;;;;;;;;;5013559;28;20092;-85
2021/09/26 01:32:24;;;;;;;6.35;5.30;;;;;;;;;;5013569;28;20030;-86
2021/09/26 01:34:54;;;;;;;7.00;5.40;;;;;;;;;;5013471;28;20053;-85
2021/09/26 01:37:37;;;;;;;8.52;5.70;;;;;;;;;;5014603;28;20353;-85
2021/09/26 01:40:42;;;;;;;7.97;5.53;;;16.80;99.90;;;;;;5034113;28;20045;-85
2021/09/26 01:43:13;;;;;;;6.22;5.00;;;16.50;99.90;;;;;;5021957;28;20033;-85
2021/09/26 01:45:58;;;;;;;11.15;5.53;;;16.60;99.90;;;;;;5036636;28;20372;-86
2021/09/26 01:48:42;;;;;;;;;;;16.60;99.90;;;;;;5036648;28;20025;-86
2021/09/26 01:51:11;;;;;;;7.93;5.22;;;16.70;99.90;;;;;;5036249;28;19915;-86
2021/09/26 01:53:42;;;;;;;10.55;5.25;;;16.90;99.90;;;;;;5035411;28;20102;-85
2021/09/26 01:56:11;;;;;;;6.35;4.43;;;16.80;99.90;;;;;;5054337;28;20017;-85
2021/09/26 01:58:37;;;;;;;6.28;4.82;;;16.80;99.90;;;;;;5036579;28;20032;-85
2021/09/26 02:01:03;;;;;;;6.13;5.10;;;16.90;99.90;;;;;;5035969;28;20056;-86
2021/09/26 02:03:29;;;;;;;6.57;4.85;;;16.70;99.90;;;;;;5035935;28;20055;-86
2021/09/26 02:05:56;;;;;;;7.53;4.75;;;16.50;99.90;;;;;;5035926;28;20021;-86
2021/09/26 02:08:22;;;;;;;5.07;4.50;;;16.50;99.90;;;;;;5035878;28;20035;-85
2021/09/26 02:10:49;;;;;;;6.15;4.45;;;16.50;99.90;;;;;;5035705;28;20108;-85
2021/09/26 02:13:15;;;;;;;5.90;4.50;;;16.70;99.90;;;;;;5036633;28;20018;-85
2021/09/26 02:15:44;;;;;;;5.95;5.00;;;16.90;99.90;;;;;;5053915;28;20021;-86
2021/09/26 02:18:11;;;;;;;5.75;4.43;;;16.90;99.90;;;;;;5035679;28;20017;-85
2021/09/26 02:20:38;;;;;;;7.18;4.50;;;16.80;99.90;;;;;;5053572;28;20025;-86
2021/09/26 02:23:04;;;;;;;9.07;4.78;;;16.70;99.90;;;;;;5035923;28;20036;-85
2021/09/26 02:25:31;;;;;;;7.63;4.63;;;16.60;99.90;;;;;;5035589;28;20078;-85
2021/09/26 02:27:57;;;;;;;7.13;4.78;;;16.60;99.90;;;;;;5035583;28;20119;-85
2021/09/26 02:30:27;;;;;;;6.47;4.30;;;16.70;99.90;;;;;;5053269;28;20086;-85
2021/09/26 02:32:53;;;;;;;9.70;4.88;;;16.70;99.90;;;;;;5035471;28;20488;-86
2021/09/26 02:35:19;;;;;;;9.27;4.57;;;16.60;99.90;;;;;;5035388;28;20096;-85
2021/09/26 02:37:44;;;;;;;7.97;4.72;;;16.50;99.90;;;;;;5035322;28;20025;-85
2021/09/26 02:40:11;;;;;;;6.55;4.82;;;16.50;99.90;;;;;;5035232;28;20049;-85
2021/09/26 02:42:46;;;;;;;9.32;4.25;;;16.40;99.90;;;;;;5035294;28;20507;-86
2021/09/26 02:45:19;;;;;;;6.75;4.75;;;16.70;99.90;;;;;;5035331;28;20029;-85
2021/09/26 02:48:19;;;;;;;5.50;4.38;;;16.70;99.90;;;;;;5053226;28;20032;-85
2021/09/26 02:50:47;;;;;;;8.55;4.38;;;16.40;99.90;;;;;;4999705;28;20036;-86
2021/09/26 02:53:14;;;;;;;10.05;4.90;;;16.30;99.90;;;;;;5053056;28;20025;-85
2021/09/26 02:55:42;;;;;;;9.15;4.40;;;16.40;99.90;;;;;;5035172;28;20455;-85
2021/09/26 02:58:08;;;;;;;9.80;4.50;;;16.40;99.90;;;;;;5035252;28;20183;-85
2021/09/26 03:00:40;;;;;;;8.02;5.05;;;16.30;99.90;;;;;;5053291;28;20056;-85
2021/09/26 03:03:12;;;;;;;7.25;4.70;;;16.30;99.90;;;;;;5035196;28;20078;-85
2021/09/26 03:05:39;;;;;;;9.77;4.65;;;16.20;99.90;;;;;;5038989;28;20025;-85
2021/09/26 03:08:06;;;;;;;11.98;4.70;;;16.40;99.90;;;;;;5057155;28;20099;-85
2021/09/26 03:10:32;;;;;;;8.25;4.70;;;16.50;99.90;;;;;;5057309;28;20087;-85
2021/09/26 03:12:58;;;;;;;7.07;4.55;;;16.40;99.90;;;;;;5057304;28;20063;-86
2021/09/26 03:15:24;;;;;;;8.50;4.38;;;16.40;99.90;;;;;;5039095;28;20017;-86
2021/09/26 03:17:50;;;;;;;7.30;4.10;;;16.30;99.90;;;;;;5056950;28;20025;-85
2021/09/26 03:20:16;;;;;;;7.65;4.65;;;16.30;99.90;;;;;;5039115;28;20052;-86
2021/09/26 03:22:41;;;;;;;6.78;4.22;;;16.30;99.90;;;;;;5056879;28;20025;-85
2021/09/26 03:25:08;;;;;;;8.63;4.63;;;16.10;99.90;;;;;;5038938;28;20067;-85
2021/09/26 03:27:33;;;;;;;6.07;4.35;;;16.10;99.90;;;;;;5038985;28;20036;-85
2021/09/26 03:29:59;;;;;;;6.05;4.20;;;16.10;99.90;;;;;;5038983;28;20025;-86
2021/09/26 03:32:25;;;;;;;12.82;4.28;;;16.20;99.90;;;;;;5039453;28;20032;-86
2021/09/26 03:34:50;;;;;;;12.05;4.45;;;16.40;99.90;;;;;;5039328;28;20466;-85
2021/09/26 03:37:16;;;;;;;9.45;4.47;;;16.50;99.90;;;;;;5038819;28;20044;-86
2021/09/26 03:39:42;;;;;;;6.25;4.75;;;16.40;99.90;;;;;;5056324;28;20072;-86
2021/09/26 03:42:07;;;;;;;6.75;4.85;;;16.40;99.90;;;;;;5038606;28;20029;-85
2021/09/26 03:44:34;;;;;;;9.82;4.82;;;16.30;99.90;;;;;;5038618;28;20363;-85
2021/09/26 03:46:59;;;;;;;9.02;4.55;;;16.40;99.90;;;;;;5038614;28;20025;-86
2021/09/26 03:49:25;;;;;;;9.93;5.10;;;16.20;99.90;;;;;;5038497;28;20032;-86
2021/09/26 03:51:51;;;;;;;7.95;4.60;;;15.90;99.90;;;;;;5056339;28;20033;-85
2021/09/26 03:54:19;;;;;;;4.75;3.80;;;15.90;99.90;;;;;;5038450;28;20388;-86
2021/09/26 03:56:45;;;;;;;8.52;5.28;;;16.20;99.90;;;;;;5038437;28;20468;-86
2021/09/26 03:59:12;;;;;;;8.55;4.30;;;16.40;99.90;;;;;;5038445;28;20033;-85
2021/09/26 04:01:41;;;;;;;7.18;4.47;;;16.50;99.90;;;;;;5038346;28;20032;-85
2021/09/26 04:04:08;;;;;;;9.38;4.55;;;16.50;99.90;;;;;;5038247;28;20021;-85
2021/09/26 04:06:34;;;;;;;7.20;4.22;;;16.50;99.90;;;;;;5038263;28;20116;-85
2021/09/26 04:08:59;;;;;;;5.40;3.90;;;16.50;99.90;;;;;;5038088;28;20104;-85
2021/09/26 04:11:25;;;;;;;7.53;4.38;;;16.40;99.90;;;;;;5038055;28;20017;-85
2021/09/26 04:13:51;;;;;;;8.77;4.50;;;16.10;99.90;;;;;;5038008;28;20388;-86
2021/09/26 04:16:17;;;;;;;7.97;4.90;;;16.20;99.90;;;;;;5055073;28;20070;-85
2021/09/26 04:18:42;;;;;;;10.80;4.40;;;16.40;99.90;;;;;;5055958;28;20480;-85
2021/09/26 04:21:08;;;;;;;8.98;4.10;;;16.60;99.90;;;;;;5037948;28;20538;-86
2021/09/26 04:23:34;;;;;;;10.88;4.50;;;16.60;99.90;;;;;;5055895;28;20028;-85
2021/09/26 04:26:00;;;;;;;8.52;4.53;;;16.60;99.90;;;;;;5038465;28;20457;-85
2021/09/26 04:28:26;;;;;;;7.57;4.38;;;16.40;99.90;;;;;;5037765;28;20040;-85
2021/09/26 04:30:51;;;;;;;7.63;4.53;;;16.20;99.90;;;;;;5037996;28;20039;-85
2021/09/26 04:33:17;;;;;;;9.40;4.97;;;16.00;99.90;;;;;;5037665;28;20017;-85
2021/09/26 04:35:43;;;;;;;10.35;4.85;;;16.00;99.90;;;;;;5037729;28;20440;-86
2021/09/26 04:38:08;;;;;;;6.78;4.53;;;16.00;99.90;;;;;;5037627;28;20048;-85
2021/09/26 04:40:34;;;;;;;8.63;5.00;;;15.80;99.90;;;;;;5037442;28;20135;-85
2021/09/26 04:43:00;;;;;;;10.75;4.80;;;15.70;99.90;;;;;;5037496;28;20373;-86
2021/09/26 04:45:26;;;;;;;7.88;4.70;;;15.70;99.90;;;;;;5037497;28;20029;-85
2021/09/26 04:47:51;;;;;;;10.15;4.93;;;15.70;99.90;;;;;;5037475;28;20082;-85
2021/09/26 04:50:17;;;;;;;9.05;4.50;;;15.80;99.90;;;;;;5055251;28;20021;-85
2021/09/26 04:52:43;;;;;;;6.25;4.57;;;15.80;99.90;;;;;;5037318;28;20017;-85
2021/09/26 04:55:09;;;;;;;10.98;4.80;;;15.80;99.90;;;;;;5037994;28;20025;-85
2021/09/26 04:57:35;;;;;;;9.50;4.38;;;15.60;99.90;;;;;;5037195;28;20362;-85
2021/09/26 05:00:02;;;;;;;7.07;4.25;;;15.50;99.90;;;;;;5037189;28;20025;-85
2021/09/26 05:02:28;;;;;;;8.73;4.72;;;15.60;99.90;;;;;;5055086;28;20025;-85
2021/09/26 05:04:53;;;;;;;6.60;4.32;;;15.80;99.90;;;;;;5055288;28;20381;-85
2021/09/26 05:07:20;;;;;;;17.17;4.78;;;15.70;99.90;;;;;;5037100;28;20024;-85
2021/09/26 05:09:46;;;;;;;6.35;4.32;;;15.70;99.90;;;;;;5054818;28;20036;-86
2021/09/26 05:12:11;;;;;;;8.65;4.35;;;15.70;99.90;;;;;;5036922;28;20051;-85
2021/09/26 05:14:37;;;;;;;9.65;4.43;;;15.70;99.90;;;;;;5054797;28;20138;-85
2021/09/26 05:17:05;;;;;;;5.82;4.53;;;15.60;99.90;;;;;;5036896;28;20029;-86
2021/09/26 05:19:31;;;;;;;12.27;4.65;;;15.50;99.90;;;;;;5037744;28;20480;-85
2021/09/26 05:21:57;;;;;;;12.27;4.88;;;15.60;99.90;;;;;;5036854;28;20060;-86
2021/09/26 05:24:23;;;;;;;8.05;4.75;;;15.60;99.90;;;;;;5036704;28;20096;-86
2021/09/26 05:26:48;;;;;;;8.77;4.57;;;15.50;99.90;;;;;;5036768;28;20510;-85
2021/09/26 05:29:14;;;;;;;5.25;4.00;;;15.40;99.90;;;;;;5055029;28;20029;-85
2021/09/26 05:31:40;;;;;;;10.82;4.93;;;15.60;99.90;;;;;;5036576;28;20483;-85
2021/09/26 05:34:06;;;;;;;9.35;4.70;;;16.00;99.90;;;;;;5036496;28;20021;-85
2021/09/26 05:36:31;;;;;;;8.50;4.25;;;15.90;99.90;;;;;;5036457;28;20048;-85
2021/09/26 05:38:57;;;;;;;9.95;4.47;;;15.90;99.90;;;;;;5036206;28;20025;-85
2021/09/26 05:41:24;;;;;;;9.68;4.20;;;15.90;99.90;;;;;;5054618;28;20021;-86
2021/09/26 05:43:50;;;;;;;9.23;4.97;;;16.00;99.90;;;;;;5054309;28;20028;-85
2021/09/26 05:46:16;;;;;;;6.70;3.78;;;15.90;99.90;;;;;;5036468;28;20021;-85
2021/09/26 05:48:42;;;;;;;17.33;4.43;;;15.70;99.90;;;;;;5036436;28;20507;-86
2021/09/26 05:51:07;;;;;;;8.45;4.45;;;15.70;99.90;;;;;;5036304;28;20025;-85
2021/09/26 05:53:34;;;;;;;7.22;3.88;;;15.70;99.90;;;;;;5054231;28;20028;-86
2021/09/26 05:56:00;;;;;;;6.32;4.55;;;15.70;99.90;;;;;;5036240;28;20507;-86
2021/09/26 05:58:26;;;;;;;8.35;4.07;;;16.00;99.90;;;;;;5036625;28;20025;-86
2021/09/26 06:00:51;;;;;;;12.85;4.65;;;16.10;99.90;;;;;;5036082;28;20132;-85
2021/09/26 06:03:17;;;;;;;9.20;4.10;;;16.30;99.90;;;;;;5036192;28;20021;-85
2021/09/26 06:05:43;;;;;;;7.43;3.78;;;16.20;99.90;;;;;;5035980;28;20492;-85
2021/09/26 06:08:10;;;;;;;10.60;4.45;;;16.10;99.90;;;;;;5035857;28;20031;-85
2021/09/26 06:10:37;;;;;;;7.15;4.10;;;15.90;99.90;;;;;;5035779;28;20025;-85
2021/09/26 06:13:03;;;;;;;4.65;3.88;;;15.70;99.90;;;;;;5036089;28;20025;-85
2021/09/26 06:15:30;;;;;;;9.45;4.40;;;15.80;99.90;;;;;;5035771;28;20075;-86
2021/09/26 06:17:57;;;;;;;7.25;4.32;;;16.00;99.90;;;;;;5036047;28;20025;-85
2021/09/26 06:20:23;;;;;;;5.55;4.03;;;16.10;99.90;;;;;;5035663;28;20033;-85
2021/09/26 06:22:49;;;;;;;9.32;3.85;;;16.30;99.90;;;;;;5035765;28;20029;-86
2021/09/26 06:25:15;;;;;;;7.13;4.25;;;16.40;99.90;;;;;;5035625;28;20492;-85
2021/09/26 06:27:40;;;;;;;5.07;3.70;;;16.40;99.90;;;;;;5053451;28;20396;-86
2021/09/26 06:30:07;;;;;;;11.90;3.75;;;16.70;99.90;;;;;;5019069;28;20484;-85
2021/09/26 06:32:34;;;;;;;7.18;4.00;;;16.70;99.90;;;;;;5053282;28;20037;-86
2021/09/26 06:35:02;;;;;;;7.90;3.92;;;16.60;99.90;;;;;;5053388;28;20063;-86
2021/09/26 06:37:28;;;;;;;5.22;3.95;;;16.50;99.90;;;;;;5035451;28;20079;-85
2021/09/26 06:39:55;;;;;;;6.13;4.15;;;16.70;99.90;;;;;;5034804;28;20080;-86
2021/09/26 06:42:22;;;;;;;9.00;4.18;;;16.90;99.90;;;;;;5035449;28;20108;-85
2021/09/26 06:44:47;;;;;;;8.88;4.40;;;17.10;99.90;;;;;;5053501;28;20032;-85
2021/09/26 06:47:14;;;;;;;7.50;4.07;;;17.30;99.90;;;;;;5035349;28;20021;-86
2021/09/26 06:49:40;;;;;;;8.52;4.20;;;17.30;99.90;;;;;;5035231;28;20036;-85
2021/09/26 06:52:05;;;;;;;6.68;4.60;;;17.40;99.90;;;;;;5035259;28;20021;-86
2021/09/26 06:54:31;;;;;;;8.02;4.47;;;17.50;99.90;;;;;;5035274;28;20204;-85
2021/09/26 06:56:59;;;;;;;10.13;4.25;;;17.50;99.90;;;;;;5035392;28;20021;-86
2021/09/26 06:59:24;;;;;;;8.63;3.75;;;17.50;99.90;;;;;;5035214;28;20029;-85
2021/09/26 07:01:50;;;;;;;9.95;4.43;;;17.50;99.90;;;;;;5035128;28;20036;-86
2021/09/26 07:04:16;;;;;;;7.45;4.10;;;17.50;99.90;;;;;;5053005;28;20100;-85
2021/09/26 07:06:41;;;;;;;10.38;4.90;;;17.60;99.90;;;;;;5035085;28;20594;-85
2021/09/26 07:09:07;;;;;;;9.38;6.78;;;17.70;99.90;;;;;;5035070;28;20116;-86
2021/09/26 07:11:33;;;;;;;6.90;5.05;;;17.70;99.90;;;;;;5034935;28;20025;-85
2021/09/26 07:13:58;;;;;;;8.95;5.25;;;17.70;99.90;;;;;;5034979;28;20032;-85
2021/09/26 07:16:24;;;;;;;10.77;4.70;;;17.80;99.90;;;;;;5035180;28;20053;-85
2021/09/26 07:18:51;;;;;;;6.13;4.13;;;17.80;99.90;;;;;;5035038;28;20017;-85
2021/09/26 07:21:17;;;;;;;6.88;4.03;;;17.90;99.90;;;;;;5035072;28;20029;-85
2021/09/26 07:23:44;;;;;;;7.22;4.38;;;17.90;99.90;;;;;;5035061;28;20035;-86
2021/09/26 07:26:10;;;;;;;6.70;4.20;;;18.00;99.90;;;;;;5034960;28;20552;-85
2021/09/26 07:28:36;;;;;;;13.02;4.20;;;18.00;99.90;;;;;;5035023;28;20119;-85
2021/09/26 07:31:03;;;;;;;11.15;4.75;;;18.10;99.90;;;;;;5052864;28;20072;-85
2021/09/26 07:33:28;;;;;;;8.88;3.80;;;18.10;99.90;;;;;;5018617;28;20022;-86
2021/09/26 07:35:54;;;;;;;6.32;4.50;;;18.10;99.90;;;;;;5034837;28;20124;-85
2021/09/26 07:38:20;;;;;;;6.78;4.10;;;18.10;99.90;;;;;;5034716;28;20384;-86
2021/09/26 07:40:46;;;;;;;9.07;4.70;;;18.20;99.90;;;;;;5034657;28;20041;-86
2021/09/26 07:43:12;;;;;;;9.52;4.10;;;18.10;99.90;;;;;;5034641;28;20064;-85
2021/09/26 07:45:38;;;;;;;5.85;4.18;;;18.20;99.90;;;;;;5034748;28;20056;-85
2021/09/26 07:48:05;;;;;;;8.85;4.40;;;18.20;99.90;;;;;;5034791;28;20032;-85
2021/09/26 07:50:31;;;;;;;6.53;3.75;;;18.40;99.90;;;;;;5034801;28;20030;-85
2021/09/26 07:52:57;;;;;;;7.57;4.18;;;18.50;99.90;;;;;;5039634;28;20017;-85
2021/09/26 07:55:23;;;;;;;8.55;4.50;;;18.60;99.90;;;;;;5040036;28;20024;-85
2021/09/26 07:57:50;;;;;;;10.32;5.35;;;18.60;99.90;;;;;;5039125;28;20360;-85
2021/09/26 08:00:16;;;;;;;9.00;5.55;;;18.60;99.90;;;;;;5038718;28;20029;-86
2021/09/26 08:02:42;;;;;;;13.20;5.10;;;18.70;99.90;;;;;;5038315;28;20055;-85
2021/09/26 08:05:09;;;;;;;10.85;5.68;;;18.80;99.90;;;;;;5056126;28;20025;-85
2021/09/26 08:07:35;;;;;;;10.95;5.35;;;18.80;99.90;;;;;;5056140;28;20369;-85
2021/09/26 08:10:02;;;;;;;7.88;4.80;;;18.70;99.90;;;;;;5038116;28;20103;-85
2021/09/26 08:12:27;;;;;;;8.88;5.45;;;18.80;99.90;;;;;;5038156;28;20108;-85
2021/09/26 08:14:53;;;;;;;11.88;4.63;;;18.80;99.90;;;;;;5038027;28;20117;-85
2021/09/26 08:17:19;;;;;;;9.32;4.85;;;18.80;99.90;;;;;;5038051;28;20017;-85
2021/09/26 08:19:45;;;;;;;11.25;4.88;;;18.90;99.90;;;;;;5038001;28;20440;-85
2021/09/26 08:22:11;;;;;;;6.10;4.80;;;18.90;99.90;;;;;;5038255;28;20507;-85
2021/09/26 08:24:37;;;;;;;9.73;4.88;;;19.00;99.90;;;;;;5037874;28;20057;-85
2021/09/26 08:27:04;;;;;;;8.50;4.47;;;18.90;99.90;;;;;;5037816;28;20146;-85
2021/09/26 08:29:30;;;;;;;11.00;4.72;;;18.90;99.90;;;;;;5037686;28;20116;-86
2021/09/26 08:31:56;;;;;;;11.70;4.90;;;18.90;99.90;;;;;;5037885;28;20048;-85
2021/09/26 08:34:22;;;;;;;10.63;5.35;;;18.80;99.90;;;;;;5037648;28;20033;-85
2021/09/26 08:36:50;;;;;;;14.35;4.65;;;18.80;99.90;;;;;;5037676;28;20112;-85
2021/09/26 08:39:16;;;;;;;6.47;4.05;;;18.80;99.90;;;;;;5037385;28;20485;-86
2021/09/26 08:41:43;;;;;;;28.65;15.07;;;18.80;99.90;;;;;;5037724;28;20036;-85
2021/09/26 08:44:09;;;;;;;11.63;5.72;;;18.70;99.90;;;;;;5037561;28;20024;-86
2021/09/26 08:46:36;;;;;;;15.63;6.07;;;18.60;99.90;;;;;;5055450;28;20392;-88
2021/09/26 08:49:03;;;;;;;13.10;7.55;;;18.50;99.90;;;;;;5038048;28;20025;-87
2021/09/26 08:51:29;;;;;;;10.55;6.03;;;18.30;99.90;;;;;;5037742;28;20056;-89
2021/09/26 08:53:55;;;;;;;11.80;6.63;;;18.20;99.90;;;;;;5038494;28;20021;-88
2021/09/26 08:56:21;;;;;;;10.93;7.15;;;18.10;99.90;;;;;;5037509;28;20035;-88
2021/09/26 08:58:48;;;;;;;16.55;6.70;;;17.90;99.90;;;;;;5038085;28;20025;-88
2021/09/26 09:01:15;;;;;;;16.08;8.18;;;17.80;99.90;;;;;;5038004;28;20112;-89
2021/09/26 09:03:45;;;;;;;12.20;7.38;;;17.70;99.90;;;;;;5038006;28;20502;-90
2021/09/26 09:06:11;;;;;;;10.45;6.30;;;17.80;99.90;;;;;;5038486;28;20021;-89
2021/09/26 09:08:41;;;;;;;10.35;6.75;;;17.80;99.90;;;;;;5038664;28;20092;-88
2021/09/26 09:11:08;;;;;;;10.50;7.13;;;17.80;99.90;;;;;;5037894;28;20460;-88
2021/09/26 09:13:38;;;;;;;10.65;7.50;;;17.70;99.90;;;;;;5021249;28;20055;-88
2021/09/26 09:16:11;;;;;;;12.52;6.93;;;17.70;99.90;;;;;;5037973;28;20021;-88
2021/09/26 09:18:40;;;;;;;11.05;7.80;;;17.60;99.90;;;;;;5037753;28;20074;-88
2021/09/26 09:21:22;;;;;;;13.63;7.75;;;17.60;99.90;;;;;;5037402;28;20108;-87
2021/09/26 09:23:50;;;;;;;14.38;8.55;;;17.60;99.90;;;;;;5037377;28;20044;-89
2021/09/26 09:26:30;;;;;;;15.40;7.72;;;17.60;99.90;;;;;;5038458;28;20056;-89
2021/09/26 09:28:56;;;;;;;13.40;7.97;;;17.50;99.90;;;;;;5039137;28;20025;-92
2021/09/26 09:31:22;;;;;;;12.95;8.05;;;17.60;99.90;;;;;;5038494;28;20039;-89
2021/09/26 09:33:47;;;;;;;12.10;7.50;;;17.50;99.90;;;;;;5038350;28;20025;-89
2021/09/26 09:36:28;;;;;;;14.85;9.43;;;17.60;99.90;;;;;;5037610;28;20021;-89
2021/09/26 09:39:06;;;;;;;9.80;8.35;;;17.60;99.90;;;;;;5037205;28;20119;-88
2021/09/26 09:41:45;;;;;;;14.18;8.13;;;17.50;99.90;;;;;;5038358;28;20029;-90
2021/09/26 09:44:19;;;;;;;14.75;9.48;;;17.50;99.90;;;;;;5037644;28;20116;-92
2021/09/26 09:46:48;;;;;;;14.65;9.00;;;17.40;99.90;;;;;;5038807;28;20368;-89
2021/09/26 09:49:19;;;;;;;16.15;9.45;;;17.40;99.90;;;;;;5036854;28;20021;-90
2021/09/26 09:51:55;;;;;;;14.25;8.48;;;17.50;99.90;;;;;;5037491;28;20017;-89
2021/09/26 09:54:32;;;;;;;13.52;7.82;;;17.50;99.90;;;;;;5037172;28;20029;-91
2021/09/26 09:57:09;;;;;;;14.57;8.80;;;17.50;99.90;;;;;;5037997;28;20032;-92
2021/09/26 09:59:36;;;;;;;9.43;7.28;;;17.50;99.90;;;;;;5039435;28;20037;-92
2021/09/26 10:02:03;;;;;;;15.88;9.10;;;17.70;99.90;;;;;;5042515;28;20031;-91
2021/09/26 10:04:38;;;;;;;13.43;8.48;;;17.80;99.90;;;;;;5043249;28;20031;-90
2021/09/26 10:07:26;;;;;;;13.57;9.10;;;18.00;99.90;;;;;;5051951;28;20064;-89
2021/09/26 10:09:53;;;;;;;10.88;8.50;;;18.30;99.90;;;;;;5044830;28;20078;-90
2021/09/26 10:12:28;;;;;;;10.07;8.35;;;18.30;99.90;;;;;;5037686;28;20028;-91
2021/09/26 10:14:56;;;;;;;9.40;8.02;;;18.60;99.90;;;;;;5036853;28;20021;-91
2021/09/26 10:17:23;;;;;;;15.27;8.65;;;18.70;99.90;;;;;;5036210;28;20032;-90
2021/09/26 10:19:49;;;;;;;13.95;8.70;;;18.70;99.90;;;;;;5037483;28;20048;-89
2021/09/26 10:22:15;;;;;;;12.13;8.38;;;19.00;99.90;;;;;;5036937;28;20432;-89
2021/09/26 10:24:45;;;;;;;13.80;8.13;;;19.40;99.90;;;;;;5037624;28;20028;-89
2021/09/26 10:27:13;;;;;;;10.07;7.72;;;19.40;99.90;;;;;;5036715;28;20029;-89
2021/09/26 10:29:42;;;;;;;8.85;7.13;;;19.60;99.90;;;;;;5036437;28;20119;-89
2021/09/26 10:32:10;;;;;;;12.10;7.93;;;19.70;99.90;;;;;;5035685;28;20056;-89
2021/09/26 10:34:37;;;;;;;10.63;6.80;;;19.60;99.90;;;;;;5036394;28;20031;-86
2021/09/26 10:37:05;;;;;;;12.13;8.65;;;19.30;99.90;;;;;;5036296;28;20479;-88
2021/09/26 10:39:32;;;;;;;8.75;6.90;;;19.20;99.90;;;;;;5035748;28;20128;-88
2021/09/26 10:42:16;;;;;;;13.02;9.63;;;19.20;99.90;;;;;;5035633;28;20021;-87
2021/09/26 10:44:53;;;;;;;10.32;7.85;;;19.00;99.90;;;;;;5053215;28;20025;-87
2021/09/26 10:47:30;;;;;;;12.07;8.60;;;19.10;99.90;;;;;;5035977;28;20098;-86
2021/09/26 10:50:16;;;;;;;11.80;9.07;;;19.00;99.90;;;;;;5036051;28;20035;-87
2021/09/26 10:52:51;;;;;;;11.90;8.73;;;19.00;99.90;;;;;;5035341;28;20075;-88
2021/09/26 10:55:29;;;;;;;13.30;8.27;;;19.10;99.90;;;;;;5035745;28;20021;-90
2021/09/26 10:58:07;;;;;;;14.30;8.73;;;19.30;99.90;;;;;;5035642;28;20091;-87
2021/09/26 11:00:54;;;;;;;15.52;8.73;;;19.30;99.90;;;;;;5035869;28;20033;-87
2021/09/26 11:03:32;;;;;;;12.27;8.38;;;19.30;99.90;;;;;;5035586;28;20033;-87
2021/09/26 11:05:58;;;;;;;13.50;8.82;;;19.30;99.90;;;;;;5035838;28;20036;-88
2021/09/26 11:08:24;;;;;;;11.77;7.97;;;19.00;99.90;;;;;;5035059;28;20029;-87
2021/09/26 11:10:56;;;;;;;11.52;7.80;;;19.00;99.90;;;;;;5035167;28;20080;-87
2021/09/26 11:13:29;;;;;;;11.18;7.93;;;19.00;99.90;;;;;;5035175;28;20421;-87
2021/09/26 11:16:04;;;;;;;13.73;8.77;;;19.30;99.90;;;;;;5036202;28;20530;-87
2021/09/26 11:18:43;;;;;;;13.25;7.22;;;19.60;99.90;;;;;;5035545;28;20029;-87
2021/09/26 11:21:29;;;;;;;8.63;6.68;;;20.00;99.90;;;;;;5036523;28;20025;-87
2021/09/26 11:24:00;;;;;;;9.88;6.20;;;20.80;99.90;;;;;;5053435;28;20029;-87
2021/09/26 11:26:26;;;;;;;7.78;6.30;;;22.00;99.90;;;;;;5038432;28;20033;-86
2021/09/26 11:29:00;;;;;;;7.90;6.25;;;22.40;99.90;;;;;;5039116;28;20025;-86
2021/09/26 11:31:41;;;;;;;7.97;5.15;;;22.40;99.90;;;;;;5057172;28;20021;-86
2021/09/26 11:34:08;;;;;;;7.40;5.50;;;23.30;99.90;;;;;;5039227;28;20036;-86
2021/09/26 11:36:34;;;;;;;9.70;5.50;;;23.20;99.90;;;;;;5040000;28;20472;-84
2021/09/26 11:39:27;;;;;;;10.95;5.43;;;22.60;99.90;;;;;;5039307;28;20031;-86
2021/09/26 11:41:53;;;;;;;7.28;5.03;;;22.90;99.90;;;;;;5039017;28;20082;-85
2021/09/26 11:44:19;;;;;;;10.10;5.53;;;22.80;99.90;;;;;;5039156;28;20025;-87
2021/09/26 11:46:49;;;;;;;7.25;5.43;;;22.40;99.90;;;;;;5038667;28;20025;-86
2021/09/26 11:49:15;;;;;;;6.30;5.40;;;22.30;99.90;;;;;;5056793;28;20108;-85
2021/09/26 11:51:41;;;;;;;9.05;5.75;;;21.40;99.90;;;;;;5038504;28;20108;-86
2021/09/26 11:54:08;;;;;;;6.00;5.40;;;21.90;99.90;;;;;;5056578;28;20021;-87
2021/09/26 11:56:39;;;;;;;7.03;5.32;;;22.30;99.90;;;;;;5038565;28;20074;-85
2021/09/26 11:59:11;;;;;;;8.85;6.15;;;22.60;99.90;;;;;;5038676;28;20496;-85
2021/09/26 12:01:42;;;;;;;8.52;5.90;;;22.40;99.90;;;;;;5038479;28;20040;-86
2021/09/26 12:04:21;;;;;;;6.22;5.53;;;22.30;99.90;;;;;;5038462;28;20021;-85
2021/09/26 12:06:59;;;;;;;6.38;5.10;;;22.60;99.90;;;;;;5038684;28;20108;-85
2021/09/26 12:09:40;;;;;;;8.43;5.15;;;23.10;99.90;;;;;;5038497;28;20048;-85
2021/09/26 12:12:27;;;;;;;6.60;5.07;;;23.50;99.90;;;;;;5038485;28;20021;-85
2021/09/26 12:15:04;;;;;;;6.15;4.90;;;;;;;;;;5038384;28;20047;-86
2021/09/26 12:17:32;;;;;;;7.85;5.38;;;;;;;;;;5046695;28;20021;-86
2021/09/26 12:20:03;;;;;;;8.75;5.35;;;;;;;;;;5045136;28;20021;-87
2021/09/26 12:22:30;;;;;;;8.70;4.82;;;;;;;;;;5056537;28;20029;-86
2021/09/26 12:24:58;;;;;;;5.68;4.80;;;;;;;;;;5038211;28;20116;-86
2021/09/26 12:27:27;;;;;;;7.80;4.85;;;;;;;;;;5038252;28;20024;-86
2021/09/26 12:29:56;;;;;;;7.47;4.97;;;;;;;;;;5037987;28;20029;-85
2021/09/26 12:32:32;;;;;;;5.80;4.95;;;;;;;;;;5037853;28;20029;-86
2021/09/26 12:35:04;;;;;;;6.60;4.72;;;;;;;;;;5038170;28;20066;-86
2021/09/26 12:37:32;;;;;;;5.72;4.97;;;;;;;;;;5037015;28;20032;-87
2021/09/26 12:40:00;;;;;;;7.95;5.00;;;;;;;;;;5037477;28;20634;-86
2021/09/26 12:42:29;;;;;;;8.10;5.10;;;;;;;;;;5037593;28;20403;-85
2021/09/26 12:44:56;;;;;;;6.07;5.10;;;;;;;;;;5037434;28;20025;-86
2021/09/26 12:47:27;;;;;;;7.63;4.97;;;;;;;;;;5037563;28;20495;-88
2021/09/26 12:49:53;;;;;;;8.27;4.60;;;;;;;;;;5037238;28;20043;-85
2021/09/26 12:52:19;;;;;;;5.38;4.30;;;;;;;;;;5036990;28;20036;-87
2021/09/26 12:54:48;;;;;;;6.28;4.50;;;;;;;;;;5037372;28;20388;-86
2021/09/26 12:57:15;;;;;;;7.75;4.93;;;;;;;;;;5037309;28;20083;-85
2021/09/26 12:59:43;;;;;;;8.43;4.40;;;;;;;;;;5037258;28;20035;-86
2021/09/26 13:02:23;;;;;;;7.70;4.25;;;;;;;;;;5037280;28;20038;-86